sensor_id;sensor_type;location;lat;lon;timestamp;pressure;altitude;pressure_sealevel;temperature;humidity
79690;BME280;69156;55.932;-3.238;2023-05-10T00:00:13;100144.17;;;12.62;59.93
79690;BME280;69156;55.932;-3.238;2023-05-10T00:02:37;100142.58;;;12.62;60.05
79690;BME280;69156;55.932;-3.238;2023-05-10T00:05:03;100139.55;;;12.54;59.56
79690;BME280;69156;55.932;-3.238;2023-05-10T00:07:28;100144.67;;;12.62;59.54
79690;BME280;69156;55.932;-3.238;2023-05-10T00:09:53;100148.32;;;12.54;59.64
79690;BME280;69156;55.932;-3.238;2023-05-10T00:12:18;100147.77;;;12.49;60.10
79690;BME280;69156;55.932;-3.238;2023-05-10T00:14:45;100149.19;;;12.35;60.08
79690;BME280;69156;55.932;-3.238;2023-05-10T00:17:10;100151.88;;;12.48;59.52
79690;BME280;69156;55.932;-3.238;2023-05-10T00:19:35;100149.17;;;12.62;58.96
79690;BME280;69156;55.932;-3.238;2023-05-10T00:22:01;100147.88;;;12.66;59.13
79690;BME280;69156;55.932;-3.238;2023-05-10T00:24:27;100145.51;;;12.46;59.28
79690;BME280;69156;55.932;-3.238;2023-05-10T00:26:52;100144.75;;;12.33;59.78
79690;BME280;69156;55.932;-3.238;2023-05-10T00:29:17;100143.26;;;12.24;59.71
79690;BME280;69156;55.932;-3.238;2023-05-10T00:31:43;100142.20;;;12.27;59.88
79690;BME280;69156;55.932;-3.238;2023-05-10T00:34:08;100140.85;;;11.90;60.64
79690;BME280;69156;55.932;-3.238;2023-05-10T00:36:33;100138.48;;;11.99;60.59
79690;BME280;69156;55.932;-3.238;2023-05-10T00:38:59;100137.42;;;11.72;61.71
79690;BME280;69156;55.932;-3.238;2023-05-10T00:41:24;100137.36;;;11.69;62.08
79690;BME280;69156;55.932;-3.238;2023-05-10T00:43:49;100134.87;;;11.63;62.01
79690;BME280;69156;55.932;-3.238;2023-05-10T00:46:16;100133.69;;;11.68;62.30
79690;BME280;69156;55.932;-3.238;2023-05-10T00:48:41;100127.54;;;11.67;62.10
79690;BME280;69156;55.932;-3.238;2023-05-10T00:51:06;100127.56;;;11.60;62.22
79690;BME280;69156;55.932;-3.238;2023-05-10T00:53:33;100126.09;;;11.63;62.64
79690;BME280;69156;55.932;-3.238;2023-05-10T00:55:59;100124.63;;;11.63;62.25
79690;BME280;69156;55.932;-3.238;2023-05-10T00:58:24;100126.00;;;11.58;63.00
79690;BME280;69156;55.932;-3.238;2023-05-10T01:00:49;100128.57;;;11.44;63.33
79690;BME280;69156;55.932;-3.238;2023-05-10T01:03:14;100127.32;;;11.40;63.59
79690;BME280;69156;55.932;-3.238;2023-05-10T01:05:39;100126.27;;;11.77;62.28
79690;BME280;69156;55.932;-3.238;2023-05-10T01:08:06;100121.71;;;11.58;62.74
79690;BME280;69156;55.932;-3.238;2023-05-10T01:10:31;100121.18;;;11.72;62.01
79690;BME280;69156;55.932;-3.238;2023-05-10T01:12:59;100119.47;;;11.55;62.16
79690;BME280;69156;55.932;-3.238;2023-05-10T01:15:23;100119.66;;;11.72;61.49
79690;BME280;69156;55.932;-3.238;2023-05-10T01:17:49;100120.43;;;11.51;62.34
79690;BME280;69156;55.932;-3.238;2023-05-10T01:20:14;100122.88;;;11.56;63.02
79690;BME280;69156;55.932;-3.238;2023-05-10T01:23:24;100126.05;;;11.29;63.82
79690;BME280;69156;55.932;-3.238;2023-05-10T01:25:25;100123.48;;;11.30;63.19
79690;BME280;69156;55.932;-3.238;2023-05-10T01:27:47;100126.68;;;11.38;63.48
79690;BME280;69156;55.932;-3.238;2023-05-10T01:30:15;100126.35;;;11.16;64.05
79690;BME280;69156;55.932;-3.238;2023-05-10T01:32:27;100123.64;;;11.15;63.69
79690;BME280;69156;55.932;-3.238;2023-05-10T01:34:53;100122.79;;;11.01;63.85
79690;BME280;69156;55.932;-3.238;2023-05-10T01:37:19;100123.02;;;11.16;64.15
79690;BME280;69156;55.932;-3.238;2023-05-10T01:39:44;100124.25;;;11.14;64.00
79690;BME280;69156;55.932;-3.238;2023-05-10T01:42:07;100126.70;;;11.07;64.21
79690;BME280;69156;55.932;-3.238;2023-05-10T01:44:38;100123.63;;;11.26;63.26
79690;BME280;69156;55.932;-3.238;2023-05-10T01:47:01;100122.34;;;11.37;63.06
79690;BME280;69156;55.932;-3.238;2023-05-10T01:49:23;100123.79;;;10.92;64.04
79690;BME280;69156;55.932;-3.238;2023-05-10T01:51:49;100126.07;;;10.91;64.87
79690;BME280;69156;55.932;-3.238;2023-05-10T01:54:13;100126.34;;;10.79;64.99
79690;BME280;69156;55.932;-3.238;2023-05-10T01:56:37;100127.20;;;10.92;64.58
79690;BME280;69156;55.932;-3.238;2023-05-10T01:59:07;100125.62;;;11.00;63.78
79690;BME280;69156;55.932;-3.238;2023-05-10T02:01:27;100122.98;;;10.99;63.74
79690;BME280;69156;55.932;-3.238;2023-05-10T02:03:53;100122.46;;;11.05;63.57
79690;BME280;69156;55.932;-3.238;2023-05-10T02:06:20;100121.43;;;10.98;63.38
79690;BME280;69156;55.932;-3.238;2023-05-10T02:08:45;100121.01;;;10.84;64.24
79690;BME280;69156;55.932;-3.238;2023-05-10T02:11:11;100125.42;;;10.65;64.84
79690;BME280;69156;55.932;-3.238;2023-05-10T02:13:37;100128.98;;;10.48;65.59
79690;BME280;69156;55.932;-3.238;2023-05-10T02:16:02;100129.74;;;10.37;66.02
79690;BME280;69156;55.932;-3.238;2023-05-10T02:18:27;100131.22;;;10.49;66.13
79690;BME280;69156;55.932;-3.238;2023-05-10T02:20:54;100134.25;;;10.25;66.47
79690;BME280;69156;55.932;-3.238;2023-05-10T02:23:19;100134.28;;;10.45;66.25
79690;BME280;69156;55.932;-3.238;2023-05-10T02:25:46;100128.71;;;10.56;66.54
79690;BME280;69156;55.932;-3.238;2023-05-10T02:28:11;100123.26;;;10.49;66.34
79690;BME280;69156;55.932;-3.238;2023-05-10T02:30:36;100121.39;;;10.63;65.14
79690;BME280;69156;55.932;-3.238;2023-05-10T02:33:02;100119.72;;;10.83;64.82
79690;BME280;69156;55.932;-3.238;2023-05-10T02:35:28;100118.08;;;10.68;64.51
79690;BME280;69156;55.932;-3.238;2023-05-10T02:37:53;100119.88;;;10.57;65.44
79690;BME280;69156;55.932;-3.238;2023-05-10T02:40:20;100119.47;;;10.41;65.70
79690;BME280;69156;55.932;-3.238;2023-05-10T02:42:44;100122.26;;;10.45;65.44
79690;BME280;69156;55.932;-3.238;2023-05-10T02:45:13;100124.69;;;10.66;65.44
79690;BME280;69156;55.932;-3.238;2023-05-10T02:47:35;100120.99;;;10.65;65.42
79690;BME280;69156;55.932;-3.238;2023-05-10T02:50:01;100122.24;;;10.53;65.70
79690;BME280;69156;55.932;-3.238;2023-05-10T02:52:32;100125.12;;;10.69;65.17
79690;BME280;69156;55.932;-3.238;2023-05-10T02:54:55;100126.20;;;10.82;64.44
79690;BME280;69156;55.932;-3.238;2023-05-10T02:57:22;100124.10;;;11.28;62.94
79690;BME280;69156;55.932;-3.238;2023-05-10T02:59:42;100124.67;;;11.16;63.26
79690;BME280;69156;55.932;-3.238;2023-05-10T03:02:08;100129.95;;;11.09;63.44
79690;BME280;69156;55.932;-3.238;2023-05-10T03:04:33;100128.86;;;11.21;63.03
79690;BME280;69156;55.932;-3.238;2023-05-10T03:06:58;100127.99;;;11.11;63.29
79690;BME280;69156;55.932;-3.238;2023-05-10T03:09:24;100126.37;;;11.26;62.39
79690;BME280;69156;55.932;-3.238;2023-05-10T03:11:59;100121.98;;;11.26;62.22
79690;BME280;69156;55.932;-3.238;2023-05-10T03:14:23;100118.36;;;11.36;61.79
79690;BME280;69156;55.932;-3.238;2023-05-10T03:16:44;100116.04;;;11.10;62.34
79690;BME280;69156;55.932;-3.238;2023-05-10T03:19:12;100113.01;;;11.14;63.09
79690;BME280;69156;55.932;-3.238;2023-05-10T03:21:31;100114.04;;;11.01;63.84
79690;BME280;69156;55.932;-3.238;2023-05-10T03:23:59;100114.41;;;11.03;64.73
79690;BME280;69156;55.932;-3.238;2023-05-10T03:26:24;100113.80;;;10.49;65.56
79690;BME280;69156;55.932;-3.238;2023-05-10T03:28:47;100113.49;;;10.55;65.47
79690;BME280;69156;55.932;-3.238;2023-05-10T03:31:12;100110.95;;;10.58;65.23
79690;BME280;69156;55.932;-3.238;2023-05-10T03:33:46;100111.40;;;10.48;65.45
79690;BME280;69156;55.932;-3.238;2023-05-10T03:36:04;100110.73;;;10.41;65.80
79690;BME280;69156;55.932;-3.238;2023-05-10T03:38:29;100107.73;;;10.41;65.92
79690;BME280;69156;55.932;-3.238;2023-05-10T03:40:55;100106.20;;;10.41;65.88
79690;BME280;69156;55.932;-3.238;2023-05-10T03:43:20;100102.04;;;10.46;65.46
79690;BME280;69156;55.932;-3.238;2023-05-10T03:45:46;100097.60;;;10.83;64.06
79690;BME280;69156;55.932;-3.238;2023-05-10T03:48:11;100095.50;;;10.74;64.59
79690;BME280;69156;55.932;-3.238;2023-05-10T03:50:36;100095.13;;;10.75;64.84
79690;BME280;69156;55.932;-3.238;2023-05-10T03:53:02;100096.57;;;10.67;65.04
79690;BME280;69156;55.932;-3.238;2023-05-10T03:55:27;100098.48;;;10.78;65.03
79690;BME280;69156;55.932;-3.238;2023-05-10T03:57:52;100097.96;;;10.70;65.32
79690;BME280;69156;55.932;-3.238;2023-05-10T04:00:18;100102.23;;;10.62;65.58
79690;BME280;69156;55.932;-3.238;2023-05-10T04:02:43;100100.72;;;10.62;66.05
79690;BME280;69156;55.932;-3.238;2023-05-10T04:05:09;100101.99;;;10.58;66.37
79690;BME280;69156;55.932;-3.238;2023-05-10T04:07:34;100105.34;;;10.62;66.81
79690;BME280;69156;55.932;-3.238;2023-05-10T04:10:00;100104.88;;;10.51;67.14
79690;BME280;69156;55.932;-3.238;2023-05-10T04:12:25;100105.60;;;10.42;67.11
79690;BME280;69156;55.932;-3.238;2023-05-10T04:14:51;100106.40;;;10.42;67.27
79690;BME280;69156;55.932;-3.238;2023-05-10T04:17:16;100105.98;;;10.21;67.49
79690;BME280;69156;55.932;-3.238;2023-05-10T04:19:42;100105.53;;;10.26;67.46
79690;BME280;69156;55.932;-3.238;2023-05-10T04:22:07;100105.72;;;10.03;67.53
79690;BME280;69156;55.932;-3.238;2023-05-10T04:24:33;100108.35;;;10.09;67.51
79690;BME280;69156;55.932;-3.238;2023-05-10T04:26:59;100106.47;;;10.15;67.32
79690;BME280;69156;55.932;-3.238;2023-05-10T04:29:24;100111.23;;;10.17;67.45
79690;BME280;69156;55.932;-3.238;2023-05-10T04:31:50;100107.70;;;10.06;67.59
79690;BME280;69156;55.932;-3.238;2023-05-10T04:34:16;100106.51;;;10.08;67.71
79690;BME280;69156;55.932;-3.238;2023-05-10T04:36:42;100105.85;;;10.16;67.63
79690;BME280;69156;55.932;-3.238;2023-05-10T04:39:07;100106.48;;;10.26;67.14
79690;BME280;69156;55.932;-3.238;2023-05-10T04:41:32;100110.37;;;9.97;67.68
79690;BME280;69156;55.932;-3.238;2023-05-10T04:43:58;100106.25;;;10.13;67.51
79690;BME280;69156;55.932;-3.238;2023-05-10T04:46:24;100107.04;;;10.15;67.32
79690;BME280;69156;55.932;-3.238;2023-05-10T04:48:49;100106.80;;;10.15;67.29
79690;BME280;69156;55.932;-3.238;2023-05-10T04:51:15;100107.93;;;10.12;67.31
79690;BME280;69156;55.932;-3.238;2023-05-10T04:53:41;100109.34;;;10.08;67.44
79690;BME280;69156;55.932;-3.238;2023-05-10T04:56:06;100108.23;;;10.09;67.44
79690;BME280;69156;55.932;-3.238;2023-05-10T04:58:31;100108.03;;;10.10;67.63
79690;BME280;69156;55.932;-3.238;2023-05-10T05:00:57;100110.36;;;10.18;67.52
79690;BME280;69156;55.932;-3.238;2023-05-10T05:03:23;100108.43;;;10.13;67.45
79690;BME280;69156;55.932;-3.238;2023-05-10T05:05:48;100112.56;;;10.35;66.65
79690;BME280;69156;55.932;-3.238;2023-05-10T05:08:13;100113.72;;;10.33;66.13
79690;BME280;69156;55.932;-3.238;2023-05-10T05:10:38;100114.55;;;10.37;66.76
79690;BME280;69156;55.932;-3.238;2023-05-10T05:13:04;100116.95;;;10.35;67.49
79690;BME280;69156;55.932;-3.238;2023-05-10T05:15:30;100116.20;;;10.38;67.27
79690;BME280;69156;55.932;-3.238;2023-05-10T05:17:55;100117.65;;;10.30;67.27
79690;BME280;69156;55.932;-3.238;2023-05-10T05:20:21;100118.46;;;10.45;67.52
79690;BME280;69156;55.932;-3.238;2023-05-10T05:22:46;100116.94;;;10.44;66.93
79690;BME280;69156;55.932;-3.238;2023-05-10T05:25:11;100117.67;;;10.51;66.94
79690;BME280;69156;55.932;-3.238;2023-05-10T05:27:37;100117.41;;;10.31;67.08
79690;BME280;69156;55.932;-3.238;2023-05-10T05:30:04;100114.52;;;10.36;67.40
79690;BME280;69156;55.932;-3.238;2023-05-10T05:32:29;100112.84;;;10.37;67.91
79690;BME280;69156;55.932;-3.238;2023-05-10T05:34:54;100112.38;;;10.30;67.95
79690;BME280;69156;55.932;-3.238;2023-05-10T05:37:21;100111.35;;;10.44;67.73
79690;BME280;69156;55.932;-3.238;2023-05-10T05:39:45;100112.25;;;10.39;67.66
79690;BME280;69156;55.932;-3.238;2023-05-10T05:42:11;100112.70;;;10.45;68.46
79690;BME280;69156;55.932;-3.238;2023-05-10T05:44:37;100112.53;;;10.47;67.45
79690;BME280;69156;55.932;-3.238;2023-05-10T05:47:02;100113.25;;;10.60;67.64
79690;BME280;69156;55.932;-3.238;2023-05-10T05:49:27;100111.15;;;10.77;67.59
79690;BME280;69156;55.932;-3.238;2023-05-10T05:51:53;100108.35;;;11.15;65.62
79690;BME280;69156;55.932;-3.238;2023-05-10T05:54:19;100111.86;;;11.34;65.42
79690;BME280;69156;55.932;-3.238;2023-05-10T05:56:44;100110.17;;;11.49;64.80
79690;BME280;69156;55.932;-3.238;2023-05-10T05:59:10;100113.14;;;11.53;64.05
79690;BME280;69156;55.932;-3.238;2023-05-10T06:01:35;100109.26;;;11.38;63.96
79690;BME280;69156;55.932;-3.238;2023-05-10T06:04:01;100111.19;;;11.47;64.37
79690;BME280;69156;55.932;-3.238;2023-05-10T06:06:27;100109.24;;;11.87;63.40
79690;BME280;69156;55.932;-3.238;2023-05-10T06:08:52;100108.72;;;11.90;63.26
79690;BME280;69156;55.932;-3.238;2023-05-10T06:11:18;100110.36;;;11.79;63.60
79690;BME280;69156;55.932;-3.238;2023-05-10T06:13:43;100113.81;;;11.78;64.43
79690;BME280;69156;55.932;-3.238;2023-05-10T06:16:08;100117.43;;;11.85;64.43
79690;BME280;69156;55.932;-3.238;2023-05-10T06:18:33;100117.28;;;12.11;63.91
79690;BME280;69156;55.932;-3.238;2023-05-10T06:20:58;100123.12;;;12.45;61.87
79690;BME280;69156;55.932;-3.238;2023-05-10T06:23:24;100117.91;;;12.71;60.90
79690;BME280;69156;55.932;-3.238;2023-05-10T06:25:50;100119.88;;;12.78;60.51
79690;BME280;69156;55.932;-3.238;2023-05-10T06:28:20;100113.62;;;13.33;59.75
79690;BME280;69156;55.932;-3.238;2023-05-10T06:30:45;100109.06;;;13.24;59.33
79690;BME280;69156;55.932;-3.238;2023-05-10T06:33:10;100110.06;;;13.37;58.70
79690;BME280;69156;55.932;-3.238;2023-05-10T06:35:36;100112.31;;;13.08;59.38
79690;BME280;69156;55.932;-3.238;2023-05-10T06:38:01;100111.42;;;13.08;59.78
79690;BME280;69156;55.932;-3.238;2023-05-10T06:40:26;100114.77;;;13.55;58.65
79690;BME280;69156;55.932;-3.238;2023-05-10T06:42:52;100111.42;;;13.76;58.17
79690;BME280;69156;55.932;-3.238;2023-05-10T06:45:17;100116.20;;;13.74;58.09
79690;BME280;69156;55.932;-3.238;2023-05-10T06:47:42;100120.76;;;13.73;58.71
79690;BME280;69156;55.932;-3.238;2023-05-10T06:50:09;100117.59;;;14.06;57.40
79690;BME280;69156;55.932;-3.238;2023-05-10T06:52:34;100121.10;;;13.98;57.88
79690;BME280;69156;55.932;-3.238;2023-05-10T06:54:59;100126.56;;;13.88;57.82
79690;BME280;69156;55.932;-3.238;2023-05-10T06:57:24;100123.89;;;13.97;57.70
79690;BME280;69156;55.932;-3.238;2023-05-10T06:59:50;100119.75;;;14.10;57.14
79690;BME280;69156;55.932;-3.238;2023-05-10T07:02:15;100121.79;;;14.01;58.27
79690;BME280;69156;55.932;-3.238;2023-05-10T07:04:40;100118.88;;;13.97;58.06
79690;BME280;69156;55.932;-3.238;2023-05-10T07:07:06;100120.13;;;13.90;58.27
79690;BME280;69156;55.932;-3.238;2023-05-10T07:09:31;100124.13;;;13.88;59.02
79690;BME280;69156;55.932;-3.238;2023-05-10T07:11:57;100125.21;;;13.84;57.85
79690;BME280;69156;55.932;-3.238;2023-05-10T07:14:22;100125.05;;;13.96;57.97
79690;BME280;69156;55.932;-3.238;2023-05-10T07:16:47;100124.78;;;13.90;58.66
79690;BME280;69156;55.932;-3.238;2023-05-10T07:19:12;100129.79;;;13.86;58.69
79690;BME280;69156;55.932;-3.238;2023-05-10T07:21:37;100130.36;;;13.66;59.15
79690;BME280;69156;55.932;-3.238;2023-05-10T07:24:03;100130.64;;;13.65;59.05
79690;BME280;69156;55.932;-3.238;2023-05-10T07:26:29;100127.82;;;13.51;59.62
79690;BME280;69156;55.932;-3.238;2023-05-10T07:28:54;100128.94;;;13.63;59.25
79690;BME280;69156;55.932;-3.238;2023-05-10T07:31:19;100131.85;;;13.72;59.05
79690;BME280;69156;55.932;-3.238;2023-05-10T07:33:45;100129.95;;;13.70;59.27
79690;BME280;69156;55.932;-3.238;2023-05-10T07:36:11;100129.41;;;13.79;59.18
79690;BME280;69156;55.932;-3.238;2023-05-10T07:38:36;100127.54;;;13.87;58.92
79690;BME280;69156;55.932;-3.238;2023-05-10T07:41:02;100128.89;;;13.85;58.93
79690;BME280;69156;55.932;-3.238;2023-05-10T07:43:28;100123.80;;;13.98;59.19
79690;BME280;69156;55.932;-3.238;2023-05-10T07:45:53;100123.85;;;13.90;59.09
79690;BME280;69156;55.932;-3.238;2023-05-10T07:48:19;100122.47;;;14.00;58.67
79690;BME280;69156;55.932;-3.238;2023-05-10T07:50:44;100121.97;;;13.99;58.94
79690;BME280;69156;55.932;-3.238;2023-05-10T07:53:10;100122.79;;;14.07;59.12
79690;BME280;69156;55.932;-3.238;2023-05-10T07:55:35;100123.96;;;14.07;59.38
79690;BME280;69156;55.932;-3.238;2023-05-10T07:58:01;100122.90;;;14.06;59.57
79690;BME280;69156;55.932;-3.238;2023-05-10T08:00:26;100124.46;;;14.07;59.32
79690;BME280;69156;55.932;-3.238;2023-05-10T08:02:52;100127.88;;;13.99;59.89
79690;BME280;69156;55.932;-3.238;2023-05-10T08:05:18;100126.12;;;14.06;59.57
79690;BME280;69156;55.932;-3.238;2023-05-10T08:07:44;100125.14;;;14.09;61.46
79690;BME280;69156;55.932;-3.238;2023-05-10T08:10:10;100124.06;;;13.86;62.09
79690;BME280;69156;55.932;-3.238;2023-05-10T08:12:35;100121.95;;;14.06;61.37
79690;BME280;69156;55.932;-3.238;2023-05-10T08:15:01;100119.43;;;14.12;60.67
79690;BME280;69156;55.932;-3.238;2023-05-10T08:17:27;100116.92;;;14.19;61.60
79690;BME280;69156;55.932;-3.238;2023-05-10T08:19:53;100118.64;;;14.34;59.61
79690;BME280;69156;55.932;-3.238;2023-05-10T08:22:18;100118.65;;;14.26;59.53
79690;BME280;69156;55.932;-3.238;2023-05-10T08:24:44;100120.24;;;14.23;59.23
79690;BME280;69156;55.932;-3.238;2023-05-10T08:27:10;100122.15;;;14.51;58.43
79690;BME280;69156;55.932;-3.238;2023-05-10T08:29:35;100119.80;;;14.42;58.07
79690;BME280;69156;55.932;-3.238;2023-05-10T08:32:01;100116.24;;;14.57;58.19
79690;BME280;69156;55.932;-3.238;2023-05-10T08:34:27;100118.31;;;14.80;58.36
79690;BME280;69156;55.932;-3.238;2023-05-10T08:36:53;100118.70;;;14.97;57.18
79690;BME280;69156;55.932;-3.238;2023-05-10T08:39:18;100118.51;;;14.95;57.36
79690;BME280;69156;55.932;-3.238;2023-05-10T08:41:44;100118.73;;;15.04;57.14
79690;BME280;69156;55.932;-3.238;2023-05-10T08:44:09;100111.20;;;15.22;56.06
79690;BME280;69156;55.932;-3.238;2023-05-10T08:46:37;100108.87;;;15.25;55.47
79690;BME280;69156;55.932;-3.238;2023-05-10T08:49:02;100106.15;;;15.21;56.15
79690;BME280;69156;55.932;-3.238;2023-05-10T08:51:29;100106.45;;;15.37;54.89
79690;BME280;69156;55.932;-3.238;2023-05-10T08:53:53;100105.13;;;15.27;54.78
79690;BME280;69156;55.932;-3.238;2023-05-10T08:56:18;100106.40;;;15.25;55.17
79690;BME280;69156;55.932;-3.238;2023-05-10T08:58:43;100108.24;;;15.47;55.57
79690;BME280;69156;55.932;-3.238;2023-05-10T09:01:09;100104.11;;;15.32;55.36
79690;BME280;69156;55.932;-3.238;2023-05-10T09:03:35;100106.11;;;15.58;54.77
79690;BME280;69156;55.932;-3.238;2023-05-10T09:06:01;100108.79;;;15.36;54.85
79690;BME280;69156;55.932;-3.238;2023-05-10T09:08:26;100106.69;;;15.34;55.14
79690;BME280;69156;55.932;-3.238;2023-05-10T09:10:52;100106.66;;;15.36;55.35
79690;BME280;69156;55.932;-3.238;2023-05-10T09:13:17;100102.45;;;15.28;54.53
79690;BME280;69156;55.932;-3.238;2023-05-10T09:15:44;100102.83;;;15.44;54.36
79690;BME280;69156;55.932;-3.238;2023-05-10T09:18:08;100099.22;;;15.46;54.71
79690;BME280;69156;55.932;-3.238;2023-05-10T09:20:34;100098.62;;;15.53;54.38
79690;BME280;69156;55.932;-3.238;2023-05-10T09:22:59;100097.44;;;15.67;55.18
79690;BME280;69156;55.932;-3.238;2023-05-10T09:25:24;100092.35;;;15.81;54.16
79690;BME280;69156;55.932;-3.238;2023-05-10T09:27:52;100090.71;;;15.84;54.19
79690;BME280;69156;55.932;-3.238;2023-05-10T09:30:25;100087.60;;;15.75;54.35
79690;BME280;69156;55.932;-3.238;2023-05-10T09:32:44;100095.03;;;15.48;54.86
79690;BME280;69156;55.932;-3.238;2023-05-10T09:35:09;100096.19;;;15.42;54.58
79690;BME280;69156;55.932;-3.238;2023-05-10T09:37:33;100095.41;;;15.46;54.52
79690;BME280;69156;55.932;-3.238;2023-05-10T09:39:59;100094.34;;;16.00;52.98
79690;BME280;69156;55.932;-3.238;2023-05-10T09:42:24;100094.88;;;16.19;52.76
79690;BME280;69156;55.932;-3.238;2023-05-10T09:44:49;100095.49;;;16.17;53.03
79690;BME280;69156;55.932;-3.238;2023-05-10T09:47:17;100095.61;;;15.81;54.72
79690;BME280;69156;55.932;-3.238;2023-05-10T09:49:41;100097.02;;;15.75;55.68
79690;BME280;69156;55.932;-3.238;2023-05-10T09:52:05;100096.27;;;15.54;54.89
79690;BME280;69156;55.932;-3.238;2023-05-10T09:54:30;100098.80;;;15.22;60.07
79690;BME280;69156;55.932;-3.238;2023-05-10T09:56:55;100098.52;;;15.25;60.70
79690;BME280;69156;55.932;-3.238;2023-05-10T09:59:21;100097.94;;;15.18;61.88
79690;BME280;69156;55.932;-3.238;2023-05-10T10:01:49;100101.34;;;15.52;62.09
79690;BME280;69156;55.932;-3.238;2023-05-10T10:04:12;100098.65;;;15.64;61.05
79690;BME280;69156;55.932;-3.238;2023-05-10T10:06:37;100095.79;;;15.55;59.39
79690;BME280;69156;55.932;-3.238;2023-05-10T10:09:03;100094.31;;;15.52;58.80
79690;BME280;69156;55.932;-3.238;2023-05-10T10:11:28;100092.57;;;15.59;58.73
79690;BME280;69156;55.932;-3.238;2023-05-10T10:13:54;100091.86;;;15.55;58.18
79690;BME280;69156;55.932;-3.238;2023-05-10T10:16:20;100086.31;;;15.77;58.02
79690;BME280;69156;55.932;-3.238;2023-05-10T10:18:45;100084.19;;;16.00;56.41
79690;BME280;69156;55.932;-3.238;2023-05-10T10:21:12;100080.35;;;16.25;56.00
79690;BME280;69156;55.932;-3.238;2023-05-10T10:23:36;100074.31;;;16.43;55.21
79690;BME280;69156;55.932;-3.238;2023-05-10T10:26:02;100076.35;;;16.48;53.58
79690;BME280;69156;55.932;-3.238;2023-05-10T10:28:34;100077.71;;;16.63;52.94
79690;BME280;69156;55.932;-3.238;2023-05-10T10:30:52;100074.13;;;16.63;52.95
79690;BME280;69156;55.932;-3.238;2023-05-10T10:33:29;100072.02;;;16.29;53.70
79690;BME280;69156;55.932;-3.238;2023-05-10T10:35:43;100072.80;;;15.97;55.08
79690;BME280;69156;55.932;-3.238;2023-05-10T10:38:08;100071.68;;;16.13;57.20
79690;BME280;69156;55.932;-3.238;2023-05-10T10:40:34;100065.60;;;16.04;57.10
79690;BME280;69156;55.932;-3.238;2023-05-10T10:43:22;100069.24;;;15.70;58.81
79690;BME280;69156;55.932;-3.238;2023-05-10T10:45:25;100067.26;;;16.14;57.50
79690;BME280;69156;55.932;-3.238;2023-05-10T10:48:20;100057.23;;;16.26;55.16
79690;BME280;69156;55.932;-3.238;2023-05-10T10:50:16;100055.46;;;16.26;54.61
79690;BME280;69156;55.932;-3.238;2023-05-10T10:52:43;100053.00;;;15.99;55.24
79690;BME280;69156;55.932;-3.238;2023-05-10T10:55:09;100055.26;;;16.42;51.54
79690;BME280;69156;55.932;-3.238;2023-05-10T10:57:42;100048.28;;;16.20;51.95
79690;BME280;69156;55.932;-3.238;2023-05-10T11:00:31;100053.09;;;16.08;52.82
79690;BME280;69156;55.932;-3.238;2023-05-10T11:03:28;100053.97;;;16.21;53.74
79690;BME280;69156;55.932;-3.238;2023-05-10T11:04:49;100055.81;;;16.52;53.21
79690;BME280;69156;55.932;-3.238;2023-05-10T11:07:18;100054.67;;;17.10;50.35
79690;BME280;69156;55.932;-3.238;2023-05-10T11:09:40;100060.59;;;17.28;49.62
79690;BME280;69156;55.932;-3.238;2023-05-10T11:12:08;100061.75;;;17.44;49.15
79690;BME280;69156;55.932;-3.238;2023-05-10T11:14:31;100059.13;;;17.60;48.07
79690;BME280;69156;55.932;-3.238;2023-05-10T11:16:57;100080.35;;;17.67;47.20
79690;BME280;69156;55.932;-3.238;2023-05-10T11:19:27;100082.77;;;16.23;51.86
79690;BME280;69156;55.932;-3.238;2023-05-10T11:21:49;100087.31;;;15.40;55.38
79690;BME280;69156;55.932;-3.238;2023-05-10T11:24:14;100091.92;;;15.38;56.93
79690;BME280;69156;55.932;-3.238;2023-05-10T11:26:38;100094.28;;;14.92;58.86
79690;BME280;69156;55.932;-3.238;2023-05-10T11:29:04;100091.42;;;14.86;60.19
79690;BME280;69156;55.932;-3.238;2023-05-10T11:31:29;100093.53;;;14.76;60.30
79690;BME280;69156;55.932;-3.238;2023-05-10T11:33:56;100094.26;;;14.85;60.63
79690;BME280;69156;55.932;-3.238;2023-05-10T11:36:25;100094.22;;;14.77;61.45
79690;BME280;69156;55.932;-3.238;2023-05-10T11:38:46;100096.49;;;14.40;66.04
79690;BME280;69156;55.932;-3.238;2023-05-10T11:41:11;100100.23;;;14.21;66.06
79690;BME280;69156;55.932;-3.238;2023-05-10T11:43:36;100099.20;;;13.97;67.79
79690;BME280;69156;55.932;-3.238;2023-05-10T11:46:02;100099.66;;;13.86;68.72
79690;BME280;69156;55.932;-3.238;2023-05-10T11:48:27;100100.57;;;13.84;69.02
79690;BME280;69156;55.932;-3.238;2023-05-10T11:50:52;100105.05;;;13.87;69.10
79690;BME280;69156;55.932;-3.238;2023-05-10T11:53:19;100102.75;;;13.86;70.24
79690;BME280;69156;55.932;-3.238;2023-05-10T11:55:44;100101.74;;;13.96;70.14
79690;BME280;69156;55.932;-3.238;2023-05-10T11:58:11;100099.95;;;13.96;71.28
79690;BME280;69156;55.932;-3.238;2023-05-10T12:00:37;100100.49;;;14.31;70.02
79690;BME280;69156;55.932;-3.238;2023-05-10T12:03:02;100098.90;;;14.18;68.86
79690;BME280;69156;55.932;-3.238;2023-05-10T12:05:27;100094.85;;;14.34;69.43
79690;BME280;69156;55.932;-3.238;2023-05-10T12:07:53;100096.44;;;14.47;68.76
79690;BME280;69156;55.932;-3.238;2023-05-10T12:10:25;100095.07;;;14.71;66.96
79690;BME280;69156;55.932;-3.238;2023-05-10T12:12:45;100094.57;;;14.92;67.32
79690;BME280;69156;55.932;-3.238;2023-05-10T12:15:17;100090.00;;;15.18;64.36
79690;BME280;69156;55.932;-3.238;2023-05-10T12:17:37;100091.67;;;15.12;64.91
79690;BME280;69156;55.932;-3.238;2023-05-10T12:20:13;100090.69;;;15.25;63.20
79690;BME280;69156;55.932;-3.238;2023-05-10T12:22:26;100092.54;;;15.19;64.49
79690;BME280;69156;55.932;-3.238;2023-05-10T12:24:51;100089.13;;;15.43;63.11
79690;BME280;69156;55.932;-3.238;2023-05-10T12:27:16;100086.84;;;15.45;63.71
79690;BME280;69156;55.932;-3.238;2023-05-10T12:29:43;100086.31;;;15.60;64.09